Time;durP1;ratioP1;P1;durP2;ratioP2;P2;SDS_P1;SDS_P2;PMS_P1;PMS_P2;Temp;Humidity;BMP_temperature;BMP_pressure;BME280_temperature;BME280_humidity;BME280_pressure;Samples;Min_cycle;Max_cycle;Signal;HPM_P1;HPM_P2
2023/10/20 08:19:32;;;;;;;2.33;1.77;;;16.00;99.90;;;;;;4041349;23;20634;-74
2023/10/20 08:21:59;;;;;;;1.87;1.57;;;16.10;99.90;;;;;;4899592;29;20217;-73
2023/10/20 08:24:26;;;;;;;2.40;1.70;;;16.10;99.90;;;;;;4899900;29;20238;-72
2023/10/20 08:26:53;;;;;;;1.80;1.40;;;16.20;99.90;;;;;;4899667;29;20211;-72
2023/10/20 08:29:20;;;;;;;3.47;2.00;;;16.20;99.90;;;;;;4900071;29;20237;-73
2023/10/20 08:31:47;;;;;;;1.87;1.40;;;16.00;99.90;;;;;;4899580;29;20328;-71
2023/10/20 08:34:14;;;;;;;2.83;1.47;;;15.80;99.90;;;;;;4899738;29;20658;-71
2023/10/20 08:36:42;;;;;;;38.20;6.27;;;15.70;99.90;;;;;;4899218;29;20697;-74
2023/10/20 08:39:17;;;;;;;6.87;2.90;;;15.80;99.90;;;;;;4899244;29;20214;-74
2023/10/20 08:41:44;;;;;;;2.03;1.60;;;15.90;99.90;;;;;;4899526;29;20213;-71
2023/10/20 08:44:11;;;;;;;2.00;1.53;;;16.00;99.90;;;;;;4898866;29;20653;-71
2023/10/20 08:46:40;;;;;;;2.70;1.70;;;16.00;99.90;;;;;;4899038;29;20277;-71
2023/10/20 08:49:07;;;;;;;2.43;1.90;;;16.10;99.90;;;;;;4899125;29;20249;-70
2023/10/20 08:51:37;;;;;;;12.40;7.37;;;16.00;99.90;;;;;;4899479;29;20218;-71
2023/10/20 08:54:09;;;;;;;4.13;2.83;;;16.00;99.90;;;;;;4899364;29;20228;-70
2023/10/20 08:56:36;;;;;;;2.70;1.70;;;15.90;99.90;;;;;;4898884;29;20226;-70
2023/10/20 08:59:05;;;;;;;2.43;1.40;;;15.90;99.90;;;;;;4898992;29;20207;-71
2023/10/20 09:01:33;;;;;;;3.33;1.40;;;16.00;99.90;;;;;;4899260;29;20697;-71
2023/10/20 09:04:00;;;;;;;3.07;1.50;;;16.00;99.90;;;;;;4899220;29;20220;-71
2023/10/20 09:06:28;;;;;;;2.10;1.60;;;15.90;99.90;;;;;;4899125;29;20230;-71
2023/10/20 09:08:58;;;;;;;2.90;1.50;;;15.90;99.90;;;;;;4898782;29;20241;-71
2023/10/20 09:11:30;;;;;;;2.33;1.40;;;16.10;99.90;;;;;;4898963;29;20215;-71
2023/10/20 09:13:59;;;;;;;2.10;1.43;;;16.00;99.90;;;;;;4898522;29;20199;-71
2023/10/20 09:16:27;;;;;;;3.80;1.43;;;16.00;99.90;;;;;;4899014;29;20234;-71
2023/10/20 09:18:55;;;;;;;1.63;1.10;;;16.10;99.90;;;;;;4898213;29;20729;-71
2023/10/20 09:21:24;;;;;;;2.23;1.17;;;16.10;99.90;;;;;;4898599;29;20214;-71
2023/10/20 09:23:55;;;;;;;2.23;1.47;;;16.30;99.90;;;;;;4898528;29;20210;-71
2023/10/20 09:26:22;;;;;;;2.33;1.23;;;16.40;99.90;;;;;;4898503;29;20234;-71
2023/10/20 09:28:53;;;;;;;1.63;1.37;;;16.30;99.90;;;;;;4898667;29;20198;-71
2023/10/20 09:31:21;;;;;;;2.50;1.30;;;16.30;99.90;;;;;;4898023;29;20476;-71
2023/10/20 09:33:48;;;;;;;3.13;1.10;;;16.30;99.90;;;;;;4897785;29;20245;-72
2023/10/20 09:36:15;;;;;;;2.33;1.10;;;16.10;99.90;;;;;;4897982;29;20268;-72
2023/10/20 09:38:45;;;;;;;1.60;1.10;;;16.10;99.90;;;;;;4898349;29;21306;-72
2023/10/20 09:41:13;;;;;;;1.23;0.90;;;16.20;99.90;;;;;;4898199;29;20636;-71
2023/10/20 09:43:47;;;;;;;1.47;0.90;;;16.30;99.90;;;;;;4897883;29;20301;-71
2023/10/20 09:46:28;;;;;;;1.33;1.03;;;16.40;99.90;;;;;;4898155;29;20269;-71
2023/10/20 09:49:00;;;;;;;2.87;1.00;;;16.40;99.90;;;;;;4893946;29;20257;-74
2023/10/20 09:51:28;;;;;;;2.97;1.20;;;16.40;99.90;;;;;;4896497;29;20221;-77
2023/10/20 09:53:56;;;;;;;1.00;0.80;;;16.60;99.90;;;;;;4896619;29;20234;-73
2023/10/20 09:56:23;;;;;;;1.33;1.00;;;16.70;99.90;;;;;;4896169;29;20283;-73
2023/10/20 09:58:57;;;;;;;1.70;1.00;;;16.80;99.90;;;;;;4896256;29;20214;-76
2023/10/20 10:01:26;;;;;;;0.67;0.60;;;17.00;99.90;;;;;;4895584;29;20229;-73
2023/10/20 10:04:03;;;;;;;2.58;0.70;;;17.30;99.90;;;;;;4894525;29;20258;-73
2023/10/20 10:06:36;;;;;;;1.50;0.68;;;17.40;99.90;;;;;;4894772;29;20226;-74
2023/10/20 10:09:05;;;;;;;0.73;0.60;;;17.50;99.90;;;;;;4893491;29;20210;-75
2023/10/20 10:11:34;;;;;;;0.70;0.57;;;17.60;99.90;;;;;;4895423;29;20206;-74
2023/10/20 10:14:04;;;;;;;0.50;0.40;;;17.60;99.90;;;;;;4893926;29;20256;-74
2023/10/20 10:16:33;;;;;;;0.60;0.50;;;17.70;99.90;;;;;;4892714;29;20226;-72
2023/10/20 10:19:10;;;;;;;0.80;0.60;;;17.40;99.90;;;;;;4893083;29;20245;-72
2023/10/20 10:21:39;;;;;;;0.60;0.50;;;17.30;99.90;;;;;;4893601;29;20237;-71
2023/10/20 10:24:14;;;;;;;0.50;0.30;;;17.00;99.90;;;;;;4893606;29;20220;-72
2023/10/20 10:26:52;;;;;;;0.37;0.30;;;17.00;99.90;;;;;;4892939;29;20230;-72
2023/10/20 10:29:21;;;;;;;0.77;0.33;;;16.90;99.90;;;;;;4892330;29;20282;-71
2023/10/20 10:31:49;;;;;;;0.60;0.33;;;16.90;99.90;;;;;;4895081;29;20235;-72
2023/10/20 10:34:16;;;;;;;0.82;0.50;;;16.90;99.90;;;;;;4892074;29;20297;-73
2023/10/20 10:36:45;;;;;;;0.57;0.40;;;16.90;99.90;;;;;;4894264;29;20234;-72
2023/10/20 10:39:27;;;;;;;0.70;0.60;;;16.80;99.90;;;;;;4894417;29;20417;-72
2023/10/20 10:41:54;;;;;;;1.30;1.10;;;16.80;99.90;;;;;;4894936;29;20202;-71
2023/10/20 10:44:22;;;;;;;1.63;0.90;;;16.90;99.90;;;;;;4893517;29;20230;-73
2023/10/20 10:46:51;;;;;;;1.67;1.03;;;16.70;99.90;;;;;;4894383;29;20234;-72
2023/10/20 10:49:18;;;;;;;2.50;0.80;;;16.70;99.90;;;;;;4893933;29;20211;-76
2023/10/20 10:51:48;;;;;;;1.63;1.10;;;16.70;99.90;;;;;;4893939;29;20206;-73
2023/10/20 10:54:15;;;;;;;2.03;1.13;;;16.80;99.90;;;;;;4891471;29;20325;-73
2023/10/20 10:56:43;;;;;;;1.17;0.90;;;16.70;99.90;;;;;;4893256;29;20233;-73
2023/10/20 10:59:11;;;;;;;1.20;0.80;;;16.70;99.90;;;;;;4896753;29;20290;-73
2023/10/20 11:01:39;;;;;;;1.73;1.00;;;16.60;99.90;;;;;;4893842;29;20302;-73
2023/10/20 11:04:10;;;;;;;3.13;0.90;;;16.60;99.90;;;;;;4896105;29;20566;-74
2023/10/20 11:06:37;;;;;;;1.88;1.08;;;16.60;99.90;;;;;;4895471;29;20309;-73
2023/10/20 11:09:10;;;;;;;1.10;0.80;;;16.30;99.90;;;;;;4901019;29;20206;-73
2023/10/20 11:11:42;;;;;;;1.70;0.77;;;16.20;99.90;;;;;;4900973;29;20210;-73
2023/10/20 11:14:09;;;;;;;1.17;0.93;;;16.20;99.90;;;;;;4900890;29;20241;-73
2023/10/20 11:16:37;;;;;;;1.40;0.80;;;16.10;99.90;;;;;;4888773;29;20468;-73
2023/10/20 11:19:04;;;;;;;1.50;0.80;;;16.00;99.90;;;;;;4899731;29;20218;-73
2023/10/20 11:21:45;;;;;;;1.17;0.67;;;16.00;99.90;;;;;;4900364;29;20213;-73
2023/10/20 11:24:12;;;;;;;0.90;0.60;;;15.90;99.90;;;;;;4900682;29;20234;-73
2023/10/20 11:26:39;;;;;;;1.10;0.70;;;16.00;99.90;;;;;;4884810;29;20274;-73
2023/10/20 11:29:08;;;;;;;0.70;0.60;;;16.10;99.90;;;;;;4900502;29;20262;-74
2023/10/20 11:31:37;;;;;;;1.33;0.77;;;16.20;99.90;;;;;;4900145;29;20210;-73
2023/10/20 11:34:04;;;;;;;0.90;0.63;;;16.20;99.90;;;;;;4900374;29;20581;-73
2023/10/20 11:36:32;;;;;;;3.47;0.83;;;16.20;99.90;;;;;;4900504;29;20257;-73
2023/10/20 11:39:00;;;;;;;1.67;0.80;;;16.00;99.90;;;;;;4900409;29;20211;-73
2023/10/20 11:41:27;;;;;;;1.63;0.90;;;16.00;99.90;;;;;;4900309;29;20362;-73
2023/10/20 11:43:53;;;;;;;1.83;0.70;;;16.00;99.90;;;;;;4900575;29;20241;-73
2023/10/20 11:46:20;;;;;;;3.47;1.00;;;16.10;99.90;;;;;;4900066;29;20310;-72
2023/10/20 11:48:48;;;;;;;2.37;0.90;;;16.00;99.90;;;;;;4900252;29;20242;-73
2023/10/20 11:51:15;;;;;;;1.00;0.73;;;16.00;99.90;;;;;;4900395;29;20207;-74
2023/10/20 11:53:43;;;;;;;2.10;0.70;;;16.10;99.90;;;;;;4900162;29;20333;-73
2023/10/20 11:56:10;;;;;;;1.30;0.90;;;16.10;99.90;;;;;;4899483;29;20269;-74
2023/10/20 11:58:38;;;;;;;1.33;0.80;;;16.10;99.90;;;;;;4899985;29;20214;-73
2023/10/20 12:01:05;;;;;;;1.07;0.70;;;16.00;99.90;;;;;;4896775;29;20658;-72
2023/10/20 12:03:33;;;;;;;0.93;0.60;;;16.10;99.90;;;;;;4897597;29;20222;-75
2023/10/20 12:06:00;;;;;;;0.90;0.73;;;16.10;99.90;;;;;;4899841;29;20320;-75
2023/10/20 12:08:28;;;;;;;0.77;0.70;;;16.10;99.90;;;;;;4891196;29;20242;-75
2023/10/20 12:10:57;;;;;;;0.60;0.50;;;15.90;99.90;;;;;;4900103;29;20631;-75
2023/10/20 12:13:24;;;;;;;1.53;0.60;;;15.80;99.90;;;;;;4899411;29;20277;-75
2023/10/20 12:15:51;;;;;;;0.80;0.60;;;15.80;99.90;;;;;;4899947;29;20321;-75
2023/10/20 12:18:18;;;;;;;1.13;0.70;;;15.80;99.90;;;;;;4898868;29;20257;-74
2023/10/20 12:20:47;;;;;;;1.00;0.70;;;15.60;99.90;;;;;;4899550;29;20297;-75
2023/10/20 12:23:15;;;;;;;0.60;0.50;;;15.60;99.90;;;;;;4898708;29;20218;-74
2023/10/20 12:25:42;;;;;;;0.90;0.73;;;15.60;99.90;;;;;;4899657;29;20234;-74
2023/10/20 12:28:10;;;;;;;1.17;0.70;;;15.70;99.90;;;;;;4899645;29;20654;-74
2023/10/20 12:30:37;;;;;;;2.97;0.83;;;15.60;99.90;;;;;;4899692;29;20211;-74
2023/10/20 12:33:05;;;;;;;2.17;0.70;;;15.50;99.90;;;;;;4899313;29;20325;-74
2023/10/20 12:35:32;;;;;;;1.40;0.60;;;15.50;99.90;;;;;;4899584;29;20747;-74
2023/10/20 12:37:59;;;;;;;2.47;0.63;;;15.50;99.90;;;;;;4886966;29;20303;-74
2023/10/20 12:40:26;;;;;;;1.33;0.80;;;15.40;99.90;;;;;;4886193;29;20293;-73
2023/10/20 12:42:52;;;;;;;1.47;0.80;;;15.50;99.90;;;;;;4898697;29;20217;-74
2023/10/20 12:45:22;;;;;;;1.80;0.70;;;15.40;99.90;;;;;;4898592;29;20325;-73
2023/10/20 12:47:51;;;;;;;2.27;0.70;;;15.40;99.90;;;;;;4901019;29;20210;-74
2023/10/20 12:50:19;;;;;;;1.37;0.80;;;15.40;99.90;;;;;;4898249;29;21288;-73
2023/10/20 12:52:46;;;;;;;1.40;0.60;;;15.40;99.90;;;;;;4892928;29;20267;-74
2023/10/20 12:55:12;;;;;;;8.07;4.67;;;15.40;99.90;;;;;;4896296;29;20317;-73
2023/10/20 12:57:39;;;;;;;1.70;0.97;;;15.50;99.90;;;;;;4896186;29;20310;-73
2023/10/20 13:00:10;;;;;;;1.00;0.70;;;15.50;99.90;;;;;;4898357;29;20570;-74
2023/10/20 13:02:39;;;;;;;1.13;0.93;;;15.60;99.90;;;;;;4898422;29;20241;-75
2023/10/20 13:05:07;;;;;;;1.27;1.00;;;15.60;99.90;;;;;;4888070;29;20234;-74
2023/10/20 13:07:34;;;;;;;1.47;0.90;;;15.60;99.90;;;;;;4895172;29;20215;-74
2023/10/20 13:10:03;;;;;;;1.00;0.80;;;15.60;99.90;;;;;;4892615;29;20306;-74
2023/10/20 13:12:30;;;;;;;1.17;1.00;;;15.70;99.90;;;;;;4895944;29;20214;-74
2023/10/20 13:14:57;;;;;;;1.27;0.87;;;15.70;99.90;;;;;;4887980;29;20329;-74
2023/10/20 13:17:24;;;;;;;1.20;0.87;;;15.70;99.90;;;;;;4897503;29;20250;-73
2023/10/20 13:19:53;;;;;;;1.00;0.80;;;15.80;99.90;;;;;;4895480;29;20388;-74
2023/10/20 13:22:20;;;;;;;1.53;0.90;;;15.80;99.90;;;;;;4898710;29;20566;-73
2023/10/20 13:24:47;;;;;;;1.50;1.03;;;15.80;99.90;;;;;;4894321;29;20227;-74
2023/10/20 13:27:14;;;;;;;1.50;0.80;;;15.90;99.90;;;;;;4896680;29;20214;-72
2023/10/20 13:29:42;;;;;;;2.30;1.20;;;15.80;99.90;;;;;;4895520;29;20627;-74
2023/10/20 13:32:08;;;;;;;2.23;0.97;;;15.80;99.90;;;;;;4894250;29;20237;-74
2023/10/20 13:34:36;;;;;;;1.40;1.10;;;15.80;99.90;;;;;;4897745;29;20325;-75
2023/10/20 13:37:05;;;;;;;1.30;1.00;;;15.80;99.90;;;;;;4897865;29;20207;-73
2023/10/20 13:39:32;;;;;;;2.57;1.30;;;15.80;99.90;;;;;;4898168;29;20302;-73
2023/10/20 13:41:59;;;;;;;1.80;1.30;;;15.80;99.90;;;;;;4884267;29;20360;-73
2023/10/20 13:44:26;;;;;;;3.60;1.70;;;15.80;99.90;;;;;;4889221;29;20238;-73
2023/10/20 13:46:53;;;;;;;3.87;1.50;;;15.70;99.90;;;;;;4897507;29;20237;-73
2023/10/20 13:49:19;;;;;;;4.40;1.80;;;15.60;99.90;;;;;;4896635;29;20250;-73
2023/10/20 13:51:46;;;;;;;2.13;1.67;;;15.60;99.90;;;;;;4897305;29;20246;-73
2023/10/20 13:54:15;;;;;;;4.03;2.10;;;15.60;99.90;;;;;;4897375;29;20994;-74
2023/10/20 13:56:42;;;;;;;3.03;1.90;;;15.50;99.90;;;;;;4897149;29;20629;-74
2023/10/20 13:59:09;;;;;;;2.90;2.20;;;15.60;99.90;;;;;;4897283;29;20374;-74
2023/10/20 14:01:36;;;;;;;2.97;2.13;;;15.60;99.90;;;;;;4896957;29;20221;-74
2023/10/20 14:04:04;;;;;;;2.83;1.80;;;15.70;99.90;;;;;;4897300;29;20242;-73
2023/10/20 14:06:31;;;;;;;3.07;2.13;;;15.80;99.90;;;;;;4897004;29;20698;-74
2023/10/20 14:08:58;;;;;;;2.97;2.00;;;15.70;99.90;;;;;;4897111;29;20207;-74
2023/10/20 14:11:26;;;;;;;2.20;1.80;;;15.70;99.90;;;;;;4896721;29;20257;-74
2023/10/20 14:13:53;;;;;;;2.67;1.80;;;15.70;99.90;;;;;;4896685;29;20261;-75
2023/10/20 14:16:20;;;;;;;2.83;1.80;;;15.80;99.90;;;;;;4894390;29;20231;-75
2023/10/20 14:18:47;;;;;;;2.63;2.07;;;15.90;99.90;;;;;;4893684;29;20581;-74
2023/10/20 14:21:14;;;;;;;4.53;2.23;;;15.90;99.90;;;;;;4896742;29;20301;-74
2023/10/20 14:23:42;;;;;;;2.03;1.60;;;16.00;99.90;;;;;;4896616;29;20582;-75
2023/10/20 14:26:09;;;;;;;2.83;1.80;;;16.00;99.90;;;;;;4896642;29;20313;-75
2023/10/20 14:28:37;;;;;;;2.67;1.73;;;15.90;99.90;;;;;;4892595;29;20211;-75
2023/10/20 14:31:05;;;;;;;1.97;1.57;;;16.00;99.90;;;;;;4891013;29;20302;-75
2023/10/20 14:33:33;;;;;;;2.40;1.73;;;16.00;99.90;;;;;;4895779;29;20238;-75
2023/10/20 14:36:01;;;;;;;2.60;1.77;;;16.00;99.90;;;;;;4890017;29;20285;-75
2023/10/20 14:38:29;;;;;;;1.70;1.30;;;16.10;99.90;;;;;;4896489;29;20244;-75
2023/10/20 14:41:01;;;;;;;2.07;1.27;;;16.10;99.90;;;;;;4896262;29;20658;-73
2023/10/20 14:43:28;;;;;;;1.77;1.33;;;15.90;99.90;;;;;;4896190;29;20211;-74
2023/10/20 14:45:57;;;;;;;1.80;1.50;;;15.90;99.90;;;;;;4894595;29;20552;-75
2023/10/20 14:48:26;;;;;;;3.27;1.30;;;15.90;99.90;;;;;;4894216;29;20210;-74
2023/10/20 14:50:53;;;;;;;2.13;1.50;;;15.90;99.90;;;;;;4887144;29;20217;-75
2023/10/20 14:53:20;;;;;;;3.67;1.27;;;15.80;99.90;;;;;;4894529;29;20242;-74
2023/10/20 14:55:47;;;;;;;2.77;1.10;;;15.70;99.90;;;;;;4894708;29;20246;-75
2023/10/20 14:58:14;;;;;;;1.73;1.30;;;15.70;99.90;;;;;;4895610;29;20230;-74
2023/10/20 15:00:44;;;;;;;4.50;1.80;;;15.60;99.90;;;;;;4893079;29;20709;-75
2023/10/20 15:03:13;;;;;;;4.93;1.13;;;15.70;99.90;;;;;;4880169;29;20215;-75
2023/10/20 15:05:40;;;;;;;1.87;1.23;;;15.70;99.90;;;;;;4887619;29;20261;-75
2023/10/20 15:08:07;;;;;;;1.93;1.10;;;15.80;99.90;;;;;;4895527;29;20623;-75
2023/10/20 15:10:35;;;;;;;1.40;1.10;;;15.80;99.90;;;;;;4894271;29;20306;-74
2023/10/20 15:13:03;;;;;;;1.00;0.90;;;15.90;99.90;;;;;;4894039;29;20268;-76
2023/10/20 15:15:31;;;;;;;1.40;0.90;;;15.90;99.90;;;;;;4892987;29;20694;-74
2023/10/20 15:17:58;;;;;;;1.27;0.90;;;15.90;99.90;;;;;;4890189;29;20250;-74
2023/10/20 15:20:27;;;;;;;1.73;1.17;;;15.80;99.90;;;;;;4885318;29;20233;-73
2023/10/20 15:22:53;;;;;;;1.57;1.10;;;15.70;99.90;;;;;;4877202;29;20241;-74
2023/10/20 15:25:21;;;;;;;1.53;0.90;;;15.80;99.90;;;;;;4885837;29;20288;-73
2023/10/20 15:27:48;;;;;;;1.10;1.00;;;15.70;99.90;;;;;;4892213;29;20249;-74
2023/10/20 15:30:15;;;;;;;1.00;0.80;;;15.60;99.90;;;;;;4893530;29;20215;-74
2023/10/20 15:32:44;;;;;;;2.27;0.77;;;15.70;99.90;;;;;;4895531;29;20321;-75
2023/10/20 15:35:12;;;;;;;0.87;0.80;;;15.70;99.90;;;;;;4896463;29;20245;-76
2023/10/20 15:37:40;;;;;;;1.73;1.13;;;15.70;99.90;;;;;;4896711;29;20226;-75
2023/10/20 15:40:10;;;;;;;1.30;1.00;;;15.60;99.90;;;;;;4897197;29;20238;-75
2023/10/20 15:42:37;;;;;;;1.30;0.90;;;15.60;99.90;;;;;;4896913;29;20241;-76
2023/10/20 15:45:06;;;;;;;1.87;1.23;;;15.60;99.90;;;;;;4896701;29;20254;-77
2023/10/20 15:47:33;;;;;;;1.80;1.20;;;15.60;99.90;;;;;;4897054;29;20210;-75
2023/10/20 15:50:01;;;;;;;1.40;1.17;;;15.60;99.90;;;;;;4896455;29;20210;-75
2023/10/20 15:52:28;;;;;;;1.93;1.20;;;15.60;99.90;;;;;;4896870;29;20242;-78
2023/10/20 15:54:56;;;;;;;4.13;1.73;;;15.60;99.90;;;;;;4899814;29;20273;-74
2023/10/20 15:57:24;;;;;;;2.33;1.03;;;15.60;99.90;;;;;;4900742;29;20246;-75
2023/10/20 15:59:56;;;;;;;4.43;1.17;;;15.60;99.90;;;;;;4900311;29;20221;-76
2023/10/20 16:02:23;;;;;;;1.10;0.90;;;15.60;99.90;;;;;;4900022;29;20218;-75
2023/10/20 16:04:51;;;;;;;1.03;0.90;;;15.60;99.90;;;;;;4899997;29;20233;-75
2023/10/20 16:07:19;;;;;;;2.07;0.90;;;15.60;99.90;;;;;;4900070;29;20238;-76
2023/10/20 16:09:46;;;;;;;2.63;1.77;;;15.60;99.90;;;;;;4899688;29;20211;-77
2023/10/20 16:12:14;;;;;;;3.17;0.90;;;15.60;99.90;;;;;;4899728;29;20318;-76
2023/10/20 16:14:42;;;;;;;1.20;1.00;;;15.50;99.90;;;;;;4899771;29;20241;-76
2023/10/20 16:17:09;;;;;;;1.70;1.43;;;15.50;99.90;;;;;;4899656;29;20210;-76
2023/10/20 16:19:37;;;;;;;3.23;1.20;;;15.50;99.90;;;;;;4899480;29;20309;-74
2023/10/20 16:22:03;;;;;;;2.00;1.03;;;15.50;99.90;;;;;;4899894;29;20222;-76
2023/10/20 16:24:30;;;;;;;2.77;1.20;;;15.50;99.90;;;;;;4898969;29;20656;-76
2023/10/20 16:26:58;;;;;;;1.70;1.17;;;15.60;99.90;;;;;;4899846;29;20332;-75
2023/10/20 16:29:26;;;;;;;1.63;1.17;;;15.50;99.90;;;;;;4899849;29;20210;-75
2023/10/20 16:31:53;;;;;;;1.40;1.00;;;15.60;99.90;;;;;;4900148;29;20234;-74
2023/10/20 16:34:20;;;;;;;1.77;1.03;;;15.60;99.90;;;;;;4898997;29;20357;-74
2023/10/20 16:36:47;;;;;;;2.80;1.10;;;15.50;99.90;;;;;;4894812;29;20277;-74
2023/10/20 16:39:16;;;;;;;2.10;1.00;;;15.40;99.90;;;;;;4899811;29;20305;-73
2023/10/20 16:41:44;;;;;;;3.13;1.03;;;15.40;99.90;;;;;;4899516;29;20210;-74
2023/10/20 16:44:12;;;;;;;1.30;1.10;;;15.30;99.90;;;;;;4899216;29;20726;-74
2023/10/20 16:46:40;;;;;;;3.50;1.07;;;15.20;99.90;;;;;;4881467;29;20287;-74
2023/10/20 16:49:07;;;;;;;5.33;3.07;;;15.30;99.90;;;;;;4880885;29;20203;-74
2023/10/20 16:51:34;;;;;;;4.77;1.97;;;15.20;99.90;;;;;;4880935;29;20246;-73
2023/10/20 16:54:01;;;;;;;1.57;1.30;;;15.20;99.90;;;;;;4891118;29;20242;-75
2023/10/20 16:56:28;;;;;;;3.40;1.47;;;15.10;99.90;;;;;;4882594;29;20318;-74
2023/10/20 16:58:55;;;;;;;3.53;1.80;;;15.20;99.90;;;;;;4880318;29;20242;-73
2023/10/20 17:01:26;;;;;;;4.93;1.47;;;15.20;99.90;;;;;;4880835;29;20290;-73
2023/10/20 17:03:54;;;;;;;7.93;2.43;;;15.10;99.90;;;;;;4880067;29;20211;-73
2023/10/20 17:06:21;;;;;;;4.03;2.50;;;15.20;99.90;;;;;;4895486;29;20330;-74
2023/10/20 17:08:48;;;;;;;5.87;1.97;;;15.10;99.90;;;;;;4899316;29;20692;-74
2023/10/20 17:11:15;;;;;;;3.73;2.13;;;15.10;99.90;;;;;;4898969;29;20238;-74
2023/10/20 17:13:42;;;;;;;3.27;1.60;;;15.20;99.90;;;;;;4899151;29;20218;-74
2023/10/20 17:16:09;;;;;;;2.60;1.67;;;15.10;99.90;;;;;;4898425;29;20265;-74
2023/10/20 17:18:36;;;;;;;3.40;2.10;;;15.20;99.90;;;;;;4898707;29;20642;-74
2023/10/20 17:21:07;;;;;;;2.23;2.03;;;15.20;99.90;;;;;;4898668;29;20270;-73
2023/10/20 17:23:34;;;;;;;4.47;2.20;;;15.30;99.90;;;;;;4893987;29;20233;-74
2023/10/20 17:26:01;;;;;;;7.10;3.57;;;15.20;99.90;;;;;;4897875;29;20313;-73
2023/10/20 17:28:30;;;;;;;5.50;3.73;;;15.10;99.90;;;;;;4898149;29;20210;-75
2023/10/20 17:30:58;;;;;;;4.80;2.83;;;15.10;99.90;;;;;;4897917;29;20214;-74
2023/10/20 17:33:25;;;;;;;4.50;1.57;;;15.00;99.90;;;;;;4900200;29;20242;-75
2023/10/20 17:35:52;;;;;;;4.10;1.60;;;14.90;99.90;;;;;;4897407;29;20234;-75
2023/10/20 17:38:21;;;;;;;2.77;1.37;;;14.90;99.90;;;;;;4898030;29;20256;-74
2023/10/20 17:40:48;;;;;;;3.67;1.47;;;14.90;99.90;;;;;;4898294;29;20253;-75
2023/10/20 17:43:15;;;;;;;1.63;1.30;;;14.80;99.90;;;;;;4898233;29;20246;-74
2023/10/20 17:45:41;;;;;;;3.03;1.30;;;14.70;99.90;;;;;;4898086;29;20258;-76
2023/10/20 17:48:08;;;;;;;2.50;1.30;;;14.70;99.90;;;;;;4897999;29;20298;-75
2023/10/20 17:50:37;;;;;;;3.40;1.83;;;14.60;99.90;;;;;;4898079;29;20301;-75
2023/10/20 17:53:04;;;;;;;4.03;1.67;;;14.60;99.90;;;;;;4891621;29;20301;-75
2023/10/20 17:55:32;;;;;;;2.20;1.73;;;14.60;99.90;;;;;;4897574;29;20772;-75
2023/10/20 17:57:59;;;;;;;5.60;2.63;;;14.60;99.90;;;;;;4898275;29;20264;-74
2023/10/20 18:00:26;;;;;;;6.17;2.63;;;14.50;99.90;;;;;;4897495;29;20297;-75
2023/10/20 18:02:55;;;;;;;6.70;2.00;;;14.50;99.90;;;;;;4897852;29;20285;-75
2023/10/20 18:05:22;;;;;;;4.73;2.63;;;14.40;99.90;;;;;;4897149;29;20639;-75
2023/10/20 18:07:49;;;;;;;3.30;1.80;;;14.40;99.90;;;;;;4897905;29;20246;-75
2023/10/20 18:10:16;;;;;;;4.50;1.70;;;14.30;99.90;;;;;;4897397;29;20303;-75
2023/10/20 18:12:46;;;;;;;4.20;1.80;;;14.30;99.90;;;;;;4898124;29;20238;-75
2023/10/20 18:15:14;;;;;;;4.20;1.90;;;14.30;99.90;;;;;;4897565;29;20262;-76
2023/10/20 18:17:41;;;;;;;5.17;3.40;;;14.30;99.90;;;;;;4897391;29;20241;-77
2023/10/20 18:20:09;;;;;;;3.80;2.23;;;14.30;99.90;;;;;;4897648;29;20224;-76
2023/10/20 18:22:36;;;;;;;5.97;3.13;;;14.30;99.90;;;;;;4897697;29;20207;-76
2023/10/20 18:25:04;;;;;;;3.63;1.80;;;14.20;99.90;;;;;;4897200;29;20317;-76
2023/10/20 18:27:31;;;;;;;3.67;1.90;;;14.20;99.90;;;;;;4897917;29;20293;-76
2023/10/20 18:29:59;;;;;;;5.83;1.73;;;14.20;99.90;;;;;;4897260;29;20253;-76
2023/10/20 18:32:26;;;;;;;5.07;2.00;;;14.20;99.90;;;;;;4897154;29;20301;-75
2023/10/20 18:34:52;;;;;;;6.27;2.60;;;14.20;99.90;;;;;;4897024;29;20265;-76
2023/10/20 18:37:19;;;;;;;3.37;1.90;;;14.10;99.90;;;;;;4897370;29;20253;-76
2023/10/20 18:39:46;;;;;;;4.30;1.80;;;14.10;99.90;;;;;;4897348;29;20289;-76
2023/10/20 18:42:13;;;;;;;5.63;2.13;;;14.10;99.90;;;;;;4897395;29;20248;-77
2023/10/20 18:44:40;;;;;;;4.57;2.17;;;14.00;99.90;;;;;;4897059;29;20249;-76
2023/10/20 18:47:08;;;;;;;4.20;2.20;;;14.00;99.90;;;;;;4897348;29;20250;-76
2023/10/20 18:49:35;;;;;;;4.40;1.97;;;13.90;99.90;;;;;;4896963;29;20293;-76
2023/10/20 18:52:02;;;;;;;4.27;1.50;;;13.90;99.90;;;;;;4897659;29;20252;-76
2023/10/20 18:54:29;;;;;;;2.77;1.50;;;13.90;99.90;;;;;;4896439;29;20238;-75
2023/10/20 18:56:56;;;;;;;5.97;2.00;;;13.90;99.90;;;;;;4896870;29;20269;-75
2023/10/20 18:59:23;;;;;;;3.53;1.90;;;13.90;99.90;;;;;;4896616;29;20249;-76
2023/10/20 19:01:49;;;;;;;5.23;2.00;;;13.90;99.90;;;;;;4896690;29;20248;-76
2023/10/20 19:04:18;;;;;;;5.23;1.67;;;13.90;99.90;;;;;;4896584;29;20233;-76
2023/10/20 19:06:45;;;;;;;6.47;1.80;;;14.00;99.90;;;;;;4896167;29;20269;-76
2023/10/20 19:09:12;;;;;;;2.53;1.30;;;13.90;99.90;;;;;;4896521;29;20214;-77
2023/10/20 19:11:39;;;;;;;3.70;1.60;;;13.90;99.90;;;;;;4897088;29;20237;-75
2023/10/20 19:14:06;;;;;;;3.73;1.40;;;13.90;99.90;;;;;;4896964;29;20249;-76
2023/10/20 19:16:33;;;;;;;4.20;1.70;;;13.90;99.90;;;;;;4897114;29;20337;-76
2023/10/20 19:19:01;;;;;;;2.83;1.40;;;13.90;99.90;;;;;;4896609;29;20218;-76
2023/10/20 19:21:29;;;;;;;3.63;1.47;;;13.90;99.90;;;;;;4897175;29;20285;-77
2023/10/20 19:23:56;;;;;;;4.13;1.80;;;13.80;99.90;;;;;;4896945;29;20622;-77
2023/10/20 19:26:22;;;;;;;3.53;1.43;;;13.90;99.90;;;;;;4897108;29;20261;-76
2023/10/20 19:28:49;;;;;;;6.00;1.67;;;13.80;99.90;;;;;;4900487;29;20241;-77
2023/10/20 19:31:16;;;;;;;3.60;1.27;;;13.80;99.90;;;;;;4900196;29;20677;-75
2023/10/20 19:33:46;;;;;;;3.30;1.60;;;13.80;99.90;;;;;;4900737;29;20638;-76
2023/10/20 19:36:13;;;;;;;3.27;1.50;;;13.80;99.90;;;;;;4900179;29;20246;-76
2023/10/20 19:38:41;;;;;;;5.87;1.37;;;13.80;99.90;;;;;;4900858;29;20649;-75
2023/10/20 19:41:11;;;;;;;4.10;1.60;;;13.70;99.90;;;;;;4900370;29;20242;-76
2023/10/20 19:43:39;;;;;;;6.33;1.93;;;13.70;99.90;;;;;;4900563;29;20230;-76
2023/10/20 19:46:07;;;;;;;5.97;2.17;;;13.70;99.90;;;;;;4900277;29;20230;-75
2023/10/20 19:48:34;;;;;;;4.47;1.57;;;13.70;99.90;;;;;;4900469;29;20214;-76
2023/10/20 19:51:01;;;;;;;5.13;1.40;;;13.70;99.90;;;;;;4900041;29;20742;-76
2023/10/20 19:53:28;;;;;;;2.93;1.70;;;13.70;99.90;;;;;;4900159;29;20747;-75
2023/10/20 19:55:56;;;;;;;5.53;1.80;;;13.70;99.90;;;;;;4899792;29;20780;-75
2023/10/20 19:58:23;;;;;;;6.47;1.70;;;13.70;99.90;;;;;;4900573;29;20238;-76
2023/10/20 20:00:49;;;;;;;1.63;1.50;;;13.60;99.90;;;;;;4900227;29;20294;-76
2023/10/20 20:03:17;;;;;;;4.87;1.60;;;13.60;99.90;;;;;;4900268;29;20245;-75
2023/10/20 20:05:44;;;;;;;4.87;1.67;;;13.60;99.90;;;;;;4899929;29;20230;-76
2023/10/20 20:08:10;;;;;;;3.50;1.60;;;13.60;99.90;;;;;;4900040;29;20242;-75
2023/10/20 20:10:37;;;;;;;3.97;1.60;;;13.60;99.90;;;;;;4900066;29;20266;-77
2023/10/20 20:13:06;;;;;;;2.87;1.40;;;13.60;99.90;;;;;;4900109;29;20257;-75
2023/10/20 20:15:32;;;;;;;3.03;1.60;;;13.60;99.90;;;;;;4900343;29;20679;-75
2023/10/20 20:17:59;;;;;;;2.70;1.90;;;13.60;99.90;;;;;;4900056;29;20238;-75
2023/10/20 20:20:26;;;;;;;2.90;1.57;;;13.60;99.90;;;;;;4899578;29;20249;-75
2023/10/20 20:22:53;;;;;;;6.80;2.10;;;13.60;99.90;;;;;;4899784;29;20215;-76
2023/10/20 20:25:20;;;;;;;6.20;1.93;;;13.60;99.90;;;;;;4899725;29;20258;-77
2023/10/20 20:27:47;;;;;;;3.67;1.77;;;13.60;99.90;;;;;;4899892;29;20249;-76
2023/10/20 20:30:15;;;;;;;3.17;1.77;;;13.60;99.90;;;;;;4899513;29;20297;-75
2023/10/20 20:32:43;;;;;;;3.30;1.40;;;13.50;99.90;;;;;;4899967;29;20246;-74
2023/10/20 20:35:10;;;;;;;5.57;1.43;;;13.50;99.90;;;;;;4899345;29;20563;-77
2023/10/20 20:37:37;;;;;;;4.13;1.90;;;13.60;99.90;;;;;;4899944;29;20210;-77
2023/10/20 20:40:04;;;;;;;2.03;1.27;;;13.60;99.90;;;;;;4898594;29;20622;-73
2023/10/20 20:42:32;;;;;;;4.13;1.67;;;13.60;99.90;;;;;;4899660;29;20214;-76
2023/10/20 20:44:59;;;;;;;4.70;1.40;;;13.60;99.90;;;;;;4899446;29;20317;-76
2023/10/20 20:47:27;;;;;;;4.73;1.40;;;13.60;99.90;;;;;;4899375;29;20293;-76
2023/10/20 20:49:54;;;;;;;1.80;1.10;;;13.60;99.90;;;;;;4898947;29;20607;-77
2023/10/20 20:52:21;;;;;;;5.00;1.20;;;13.60;99.90;;;;;;4899189;29;20237;-76
2023/10/20 20:54:47;;;;;;;2.30;1.37;;;13.70;99.90;;;;;;4887162;29;20318;-74
2023/10/20 20:57:14;;;;;;;2.37;1.43;;;13.60;99.90;;;;;;4898750;29;20320;-76
2023/10/20 20:59:41;;;;;;;2.87;1.30;;;13.50;99.90;;;;;;4899350;29;20242;-74
2023/10/20 21:02:08;;;;;;;2.80;1.17;;;13.60;99.90;;;;;;4898748;29;20253;-75
2023/10/20 21:04:36;;;;;;;2.20;1.30;;;13.60;99.90;;;;;;4898873;29;20253;-77
2023/10/20 21:07:05;;;;;;;2.17;1.03;;;13.60;99.90;;;;;;4899091;29;20749;-76
2023/10/20 21:09:32;;;;;;;3.23;1.30;;;13.60;99.90;;;;;;4898886;29;20218;-76